METAR

ENBN 220250Z AUTO 10004KT 060V130 9999NDV -DZ OVC052/// 07/04 Q1015

ENMS 212050Z VRB01KT 9999 SCT025 BKN035 05/02 Q1017 RMK WIND 412FT 00000KT

ENNM 212020Z VRB01KT 9999 FEW003 SCT020 BKN029 07/07 Q1017

ENOL 220250Z 12018KT 9999 FEW015 BKN080 08/06 Q1014

ENST 211920Z 19011KT 9999 FEW007 SCT015 BKN023 06/04 Q1017 RMK WIND 300FT 19012KT

ENVA 220250Z 14006KT 9999 FEW040 SCT050 BKN070 07/05 Q1016 RMK WIND 670FT 10009KT



TAF

TAF ENVA 212300Z 2200/2224 10007KT 9999 FEW020 SCT060